Terminal Aerodrome Forecast
Issued by NWS Binghamton, NY

Home | Current Version | Previous Version | Text Only | Print | Product List | Glossary On
Versions: 1 2 3 4 5 6 7 8 9 10 11 12 13 14 15 16 17
000
FTUS41 KBGM 051227 AAA
TAFSYR
TAF AMD
KSYR 051227Z 0512/0612 35005KT P6SM SCT035 BKN200
      TEMPO 0512/0514 3SM BR BKN035
     FM051900 02006KT P6SM SCT060 BKN150
     FM060000 00000KT P6SM OVC120
     FM060800 VRB03KT P6SM OVC070=

USA.gov is the U.S. government's official web portal to all federal, state and local government web resources and services.